This is the latest recevied weather packets stored in our database for station/object F4CYQ-10. If no packets are shown the sender has not sent any weather packets the latest 10 day(s).
| Time | Temp. | Humidity | Pressure | Rain* | Wind** | Luminosity | Snow |
|---|---|---|---|---|---|---|---|
| 1777490133 | 21.67° C | 61% | 1012.2 hPa | - | - | - | - |
| 1777489232 | 21.11° C | 60% | 1012 hPa | - | - | - | - |
| 1777488331 | -5° C | 100% | 4.8 hPa | - | - | - | - |
| 1777488129 | 21.11° C | 60% | 1011.1 hPa | - | - | - | - |
| 1777487228 | 21.67° C | 60% | 1010.5 hPa | - | - | - | - |
| 1777486328 | 21.67° C | 60% | 1010.5 hPa | - | - | - | - |
| 1777485427 | 21.67° C | 60% | 1010.5 hPa | - | - | - | - |
| 1777485233 | 20° C | 59% | 1010.4 hPa | - | - | - | - |
| 1777484332 | 20° C | 60% | 1010.2 hPa | - | - | - | - |
| 1777483430 | 20° C | 60% | 1010.1 hPa | - | - | - | - |
| 1777482529 | 20.56° C | 60% | 1009.8 hPa | - | - | - | - |
| 1777482395 | 20.56° C | 61% | 1009.8 hPa | - | - | - | - |
| 1777481494 | 20.56° C | 61% | 1009.7 hPa | - | - | - | - |
| 1777480593 | 20.56° C | 62% | 1009.8 hPa | - | - | - | - |
| 1777479691 | 21.67° C | 61% | 1010.1 hPa | - | - | - | - |
| 1777479553 | 19.44° C | 61% | 1010 hPa | - | - | - | - |
| 1777478652 | 19.44° C | 60% | 1010.1 hPa | - | - | - | - |
| 1777477751 | 19.44° C | 60% | 1010.1 hPa | - | - | - | - |
| 1777476850 | 21.11° C | 60% | 1010.3 hPa | - | - | - | - |
| 1777476707 | 20.56° C | 62% | 1010.3 hPa | - | - | - | - |
| 1777475808 | 21.11° C | 61% | 1010.3 hPa | - | - | - | - |
| 1777475807 | 21.11° C | 61% | 1010.3 hPa | - | - | - | - |
| 1777474906 | 22.22° C | 62% | 1010.5 hPa | - | - | - | - |
| 1777474005 | 22.22° C | 62% | 1010.5 hPa | - | - | - | - |
| 1777473826 | 20° C | 61% | 1010.4 hPa | - | - | - | - |
* Rain since midnight (hover to see other rain measurements)
** Current wind speed in m/s (hover to see current wind gust speed)